sensor_id;sensor_type;location;lat;lon;timestamp;P1;durP1;ratioP1;P2;durP2;ratioP2
2784;SDS011;57944;48.722;9.316;2022-09-25T00:00:30;24.70;;;16.57;;
2784;SDS011;57944;48.722;9.316;2022-09-25T00:03:00;23.63;;;16.23;;
2784;SDS011;57944;48.722;9.316;2022-09-25T00:05:30;26.57;;;19.07;;
2784;SDS011;57944;48.722;9.316;2022-09-25T00:08:00;28.73;;;19.03;;
2784;SDS011;57944;48.722;9.316;2022-09-25T00:10:30;28.10;;;19.60;;
2784;SDS011;57944;48.722;9.316;2022-09-25T00:13:01;32.07;;;19.53;;
2784;SDS011;57944;48.722;9.316;2022-09-25T00:15:34;29.60;;;19.03;;
2784;SDS011;57944;48.722;9.316;2022-09-25T00:18:04;29.77;;;19.50;;
2784;SDS011;57944;48.722;9.316;2022-09-25T00:20:34;33.83;;;22.40;;
2784;SDS011;57944;48.722;9.316;2022-09-25T00:23:03;27.67;;;20.10;;
2784;SDS011;57944;48.722;9.316;2022-09-25T00:25:33;34.00;;;23.40;;
2784;SDS011;57944;48.722;9.316;2022-09-25T00:28:03;38.00;;;23.90;;
2784;SDS011;57944;48.722;9.316;2022-09-25T00:30:38;32.03;;;22.20;;
2784;SDS011;57944;48.722;9.316;2022-09-25T00:33:08;31.37;;;21.40;;
2784;SDS011;57944;48.722;9.316;2022-09-25T00:35:38;33.87;;;22.33;;
2784;SDS011;57944;48.722;9.316;2022-09-25T00:38:08;31.27;;;20.70;;
2784;SDS011;57944;48.722;9.316;2022-09-25T00:40:38;28.27;;;20.27;;
2784;SDS011;57944;48.722;9.316;2022-09-25T00:43:10;33.50;;;21.37;;
2784;SDS011;57944;48.722;9.316;2022-09-25T00:45:45;32.77;;;20.50;;
2784;SDS011;57944;48.722;9.316;2022-09-25T00:48:15;29.40;;;20.90;;
2784;SDS011;57944;48.722;9.316;2022-09-25T00:50:45;36.03;;;23.03;;
2784;SDS011;57944;48.722;9.316;2022-09-25T00:53:22;34.63;;;19.10;;
2784;SDS011;57944;48.722;9.316;2022-09-25T00:55:59;40.30;;;24.43;;
2784;SDS011;57944;48.722;9.316;2022-09-25T00:58:32;37.37;;;22.00;;
2784;SDS011;57944;48.722;9.316;2022-09-25T01:01:07;36.27;;;22.20;;
2784;SDS011;57944;48.722;9.316;2022-09-25T01:03:39;27.83;;;19.90;;
2784;SDS011;57944;48.722;9.316;2022-09-25T01:06:12;40.97;;;29.07;;
2784;SDS011;57944;48.722;9.316;2022-09-25T01:08:44;39.03;;;23.07;;
2784;SDS011;57944;48.722;9.316;2022-09-25T01:11:15;39.83;;;23.67;;
2784;SDS011;57944;48.722;9.316;2022-09-25T01:13:45;70.23;;;27.30;;
2784;SDS011;57944;48.722;9.316;2022-09-25T01:16:19;67.67;;;24.07;;
2784;SDS011;57944;48.722;9.316;2022-09-25T01:19:02;54.73;;;19.83;;
2784;SDS011;57944;48.722;9.316;2022-09-25T01:21:50;97.97;;;21.40;;
2784;SDS011;57944;48.722;9.316;2022-09-25T01:24:33;94.83;;;26.80;;
2784;SDS011;57944;48.722;9.316;2022-09-25T01:27:32;79.47;;;21.93;;
2784;SDS011;57944;48.722;9.316;2022-09-25T01:30:39;75.47;;;26.60;;
2784;SDS011;57944;48.722;9.316;2022-09-25T01:33:16;62.37;;;24.40;;
2784;SDS011;57944;48.722;9.316;2022-09-25T01:35:54;110.27;;;28.67;;
2784;SDS011;57944;48.722;9.316;2022-09-25T01:38:31;94.50;;;28.07;;
2784;SDS011;57944;48.722;9.316;2022-09-25T01:41:09;88.53;;;26.30;;
2784;SDS011;57944;48.722;9.316;2022-09-25T01:43:49;112.70;;;28.97;;
2784;SDS011;57944;48.722;9.316;2022-09-25T01:46:31;220.87;;;39.93;;
2784;SDS011;57944;48.722;9.316;2022-09-25T01:49:11;164.63;;;31.17;;
2784;SDS011;57944;48.722;9.316;2022-09-25T01:51:48;89.37;;;26.20;;
2784;SDS011;57944;48.722;9.316;2022-09-25T01:54:22;89.73;;;27.50;;
2784;SDS011;57944;48.722;9.316;2022-09-25T01:56:58;94.43;;;27.03;;
2784;SDS011;57944;48.722;9.316;2022-09-25T01:59:39;83.30;;;26.90;;
2784;SDS011;57944;48.722;9.316;2022-09-25T02:02:18;86.77;;;28.97;;
2784;SDS011;57944;48.722;9.316;2022-09-25T02:04:54;115.27;;;31.33;;
2784;SDS011;57944;48.722;9.316;2022-09-25T02:07:30;84.73;;;29.00;;
2784;SDS011;57944;48.722;9.316;2022-09-25T02:10:09;115.43;;;32.47;;
2784;SDS011;57944;48.722;9.316;2022-09-25T02:12:46;101.10;;;29.83;;
2784;SDS011;57944;48.722;9.316;2022-09-25T02:15:22;45.50;;;22.40;;
2784;SDS011;57944;48.722;9.316;2022-09-25T02:18:02;36.30;;;20.67;;
2784;SDS011;57944;48.722;9.316;2022-09-25T02:20:52;36.20;;;19.70;;
2784;SDS011;57944;48.722;9.316;2022-09-25T02:23:31;34.53;;;18.47;;
2784;SDS011;57944;48.722;9.316;2022-09-25T02:26:13;29.07;;;15.73;;
2784;SDS011;57944;48.722;9.316;2022-09-25T02:28:52;27.90;;;16.10;;
2784;SDS011;57944;48.722;9.316;2022-09-25T02:31:25;26.20;;;14.37;;
2784;SDS011;57944;48.722;9.316;2022-09-25T02:34:03;30.47;;;15.30;;
2784;SDS011;57944;48.722;9.316;2022-09-25T02:36:40;25.57;;;14.60;;
2784;SDS011;57944;48.722;9.316;2022-09-25T02:39:11;34.23;;;17.00;;
2784;SDS011;57944;48.722;9.316;2022-09-25T02:41:50;33.73;;;17.30;;
2784;SDS011;57944;48.722;9.316;2022-09-25T02:45:01;33.07;;;17.20;;
2784;SDS011;57944;48.722;9.316;2022-09-25T02:47:43;31.53;;;17.60;;
2784;SDS011;57944;48.722;9.316;2022-09-25T02:50:34;30.53;;;18.67;;
2784;SDS011;57944;48.722;9.316;2022-09-25T02:53:14;40.47;;;21.23;;
2784;SDS011;57944;48.722;9.316;2022-09-25T02:55:50;35.23;;;19.00;;
2784;SDS011;57944;48.722;9.316;2022-09-25T02:58:28;33.73;;;19.10;;
2784;SDS011;57944;48.722;9.316;2022-09-25T03:01:05;39.80;;;20.30;;
2784;SDS011;57944;48.722;9.316;2022-09-25T03:03:41;35.07;;;18.63;;
2784;SDS011;57944;48.722;9.316;2022-09-25T03:06:18;38.50;;;20.33;;
2784;SDS011;57944;48.722;9.316;2022-09-25T03:08:51;49.03;;;21.47;;
2784;SDS011;57944;48.722;9.316;2022-09-25T03:11:25;38.60;;;19.60;;
2784;SDS011;57944;48.722;9.316;2022-09-25T03:13:56;27.17;;;16.80;;
2784;SDS011;57944;48.722;9.316;2022-09-25T03:16:30;34.73;;;16.27;;
2784;SDS011;57944;48.722;9.316;2022-09-25T03:19:08;24.90;;;14.43;;
2784;SDS011;57944;48.722;9.316;2022-09-25T03:21:41;24.73;;;14.20;;
2784;SDS011;57944;48.722;9.316;2022-09-25T03:24:11;28.33;;;14.10;;
2784;SDS011;57944;48.722;9.316;2022-09-25T03:26:42;30.53;;;15.60;;
2784;SDS011;57944;48.722;9.316;2022-09-25T03:29:13;25.10;;;13.30;;
2784;SDS011;57944;48.722;9.316;2022-09-25T03:31:44;31.33;;;17.47;;
2784;SDS011;57944;48.722;9.316;2022-09-25T03:34:15;32.50;;;15.77;;
2784;SDS011;57944;48.722;9.316;2022-09-25T03:36:49;25.17;;;13.53;;
2784;SDS011;57944;48.722;9.316;2022-09-25T03:39:19;36.63;;;15.53;;
2784;SDS011;57944;48.722;9.316;2022-09-25T03:41:50;32.00;;;17.20;;
2784;SDS011;57944;48.722;9.316;2022-09-25T03:44:20;30.30;;;17.03;;
2784;SDS011;57944;48.722;9.316;2022-09-25T03:46:50;33.40;;;15.87;;
2784;SDS011;57944;48.722;9.316;2022-09-25T03:49:20;37.73;;;17.23;;
2784;SDS011;57944;48.722;9.316;2022-09-25T03:51:53;34.60;;;17.07;;
2784;SDS011;57944;48.722;9.316;2022-09-25T03:54:25;35.03;;;16.83;;
2784;SDS011;57944;48.722;9.316;2022-09-25T03:56:55;29.10;;;15.90;;
2784;SDS011;57944;48.722;9.316;2022-09-25T03:59:25;38.00;;;17.80;;
2784;SDS011;57944;48.722;9.316;2022-09-25T04:01:55;29.37;;;17.50;;
2784;SDS011;57944;48.722;9.316;2022-09-25T04:04:27;33.47;;;16.30;;
2784;SDS011;57944;48.722;9.316;2022-09-25T04:07:00;34.30;;;17.67;;
2784;SDS011;57944;48.722;9.316;2022-09-25T04:09:31;26.90;;;14.87;;
2784;SDS011;57944;48.722;9.316;2022-09-25T04:12:01;35.23;;;17.87;;
2784;SDS011;57944;48.722;9.316;2022-09-25T04:14:32;35.40;;;15.80;;
2784;SDS011;57944;48.722;9.316;2022-09-25T04:17:02;32.83;;;13.90;;
2784;SDS011;57944;48.722;9.316;2022-09-25T04:19:33;28.07;;;15.33;;
2784;SDS011;57944;48.722;9.316;2022-09-25T04:22:05;30.30;;;15.93;;
2784;SDS011;57944;48.722;9.316;2022-09-25T04:24:35;30.63;;;14.63;;
2784;SDS011;57944;48.722;9.316;2022-09-25T04:27:18;26.70;;;16.43;;
2784;SDS011;57944;48.722;9.316;2022-09-25T04:29:52;68.90;;;17.80;;
2784;SDS011;57944;48.722;9.316;2022-09-25T04:32:23;32.70;;;15.23;;
2784;SDS011;57944;48.722;9.316;2022-09-25T04:35:05;58.77;;;17.50;;
2784;SDS011;57944;48.722;9.316;2022-09-25T04:37:38;79.03;;;18.40;;
2784;SDS011;57944;48.722;9.316;2022-09-25T04:40:09;30.13;;;17.40;;
2784;SDS011;57944;48.722;9.316;2022-09-25T04:42:39;32.93;;;16.10;;
2784;SDS011;57944;48.722;9.316;2022-09-25T04:45:09;28.70;;;16.13;;
2784;SDS011;57944;48.722;9.316;2022-09-25T04:47:40;23.47;;;14.40;;
2784;SDS011;57944;48.722;9.316;2022-09-25T04:50:10;23.90;;;14.27;;
2784;SDS011;57944;48.722;9.316;2022-09-25T04:52:42;28.97;;;15.70;;
2784;SDS011;57944;48.722;9.316;2022-09-25T04:55:13;22.43;;;13.30;;
2784;SDS011;57944;48.722;9.316;2022-09-25T04:57:43;22.93;;;14.17;;
2784;SDS011;57944;48.722;9.316;2022-09-25T05:00:26;28.63;;;13.83;;
2784;SDS011;57944;48.722;9.316;2022-09-25T05:02:58;17.13;;;10.10;;
2784;SDS011;57944;48.722;9.316;2022-09-25T05:05:30;18.50;;;10.83;;
2784;SDS011;57944;48.722;9.316;2022-09-25T05:08:03;21.10;;;11.23;;
2784;SDS011;57944;48.722;9.316;2022-09-25T05:10:33;19.17;;;11.80;;
2784;SDS011;57944;48.722;9.316;2022-09-25T05:13:05;17.17;;;11.50;;
2784;SDS011;57944;48.722;9.316;2022-09-25T05:15:35;18.93;;;11.87;;
2784;SDS011;57944;48.722;9.316;2022-09-25T05:18:06;18.17;;;11.00;;
2784;SDS011;57944;48.722;9.316;2022-09-25T05:20:42;19.50;;;11.93;;
2784;SDS011;57944;48.722;9.316;2022-09-25T05:23:15;19.20;;;11.87;;
2784;SDS011;57944;48.722;9.316;2022-09-25T05:25:49;20.00;;;12.23;;
2784;SDS011;57944;48.722;9.316;2022-09-25T05:28:23;15.33;;;10.67;;
2784;SDS011;57944;48.722;9.316;2022-09-25T05:30:53;18.37;;;12.10;;
2784;SDS011;57944;48.722;9.316;2022-09-25T05:33:28;19.60;;;11.63;;
2784;SDS011;57944;48.722;9.316;2022-09-25T05:35:59;21.03;;;12.50;;
2784;SDS011;57944;48.722;9.316;2022-09-25T05:38:33;17.70;;;10.93;;
2784;SDS011;57944;48.722;9.316;2022-09-25T05:41:05;18.00;;;11.20;;
2784;SDS011;57944;48.722;9.316;2022-09-25T05:43:38;21.60;;;13.07;;
2784;SDS011;57944;48.722;9.316;2022-09-25T05:46:12;25.67;;;13.20;;
2784;SDS011;57944;48.722;9.316;2022-09-25T05:48:43;23.10;;;14.00;;
2784;SDS011;57944;48.722;9.316;2022-09-25T05:51:13;22.07;;;13.20;;
2784;SDS011;57944;48.722;9.316;2022-09-25T05:53:45;21.30;;;13.53;;
2784;SDS011;57944;48.722;9.316;2022-09-25T05:56:15;15.63;;;10.10;;
2784;SDS011;57944;48.722;9.316;2022-09-25T05:58:45;26.17;;;12.87;;
2784;SDS011;57944;48.722;9.316;2022-09-25T06:01:15;23.30;;;13.87;;
2784;SDS011;57944;48.722;9.316;2022-09-25T06:03:46;21.30;;;13.83;;
2784;SDS011;57944;48.722;9.316;2022-09-25T06:06:16;20.93;;;13.20;;
2784;SDS011;57944;48.722;9.316;2022-09-25T06:08:55;26.87;;;14.27;;
2784;SDS011;57944;48.722;9.316;2022-09-25T06:11:25;27.30;;;13.80;;
2784;SDS011;57944;48.722;9.316;2022-09-25T06:13:56;23.10;;;13.47;;
2784;SDS011;57944;48.722;9.316;2022-09-25T06:16:27;25.70;;;15.50;;
2784;SDS011;57944;48.722;9.316;2022-09-25T06:18:57;21.57;;;13.00;;
2784;SDS011;57944;48.722;9.316;2022-09-25T06:21:27;21.03;;;14.03;;
2784;SDS011;57944;48.722;9.316;2022-09-25T06:24:00;25.80;;;15.10;;
2784;SDS011;57944;48.722;9.316;2022-09-25T06:26:31;24.70;;;14.30;;
2784;SDS011;57944;48.722;9.316;2022-09-25T06:29:02;25.93;;;15.53;;
2784;SDS011;57944;48.722;9.316;2022-09-25T06:31:33;21.33;;;14.03;;
2784;SDS011;57944;48.722;9.316;2022-09-25T06:34:04;26.17;;;15.30;;
2784;SDS011;57944;48.722;9.316;2022-09-25T06:36:35;26.63;;;15.00;;
2784;SDS011;57944;48.722;9.316;2022-09-25T06:39:07;26.43;;;16.90;;
2784;SDS011;57944;48.722;9.316;2022-09-25T06:41:37;27.87;;;17.17;;
2784;SDS011;57944;48.722;9.316;2022-09-25T06:44:10;24.00;;;15.53;;
2784;SDS011;57944;48.722;9.316;2022-09-25T06:46:40;27.00;;;14.77;;
2784;SDS011;57944;48.722;9.316;2022-09-25T06:49:12;24.47;;;13.30;;
2784;SDS011;57944;48.722;9.316;2022-09-25T06:51:42;29.33;;;16.23;;
2784;SDS011;57944;48.722;9.316;2022-09-25T06:54:15;22.47;;;13.90;;
2784;SDS011;57944;48.722;9.316;2022-09-25T06:56:47;23.90;;;15.00;;
2784;SDS011;57944;48.722;9.316;2022-09-25T06:59:17;24.47;;;14.73;;
2784;SDS011;57944;48.722;9.316;2022-09-25T07:01:47;26.73;;;14.77;;
2784;SDS011;57944;48.722;9.316;2022-09-25T07:04:17;22.80;;;14.77;;
2784;SDS011;57944;48.722;9.316;2022-09-25T07:06:45;24.20;;;15.57;;
2784;SDS011;57944;48.722;9.316;2022-09-25T07:09:18;28.53;;;14.17;;
2784;SDS011;57944;48.722;9.316;2022-09-25T07:11:48;27.30;;;15.90;;
2784;SDS011;57944;48.722;9.316;2022-09-25T07:14:18;25.27;;;16.43;;
2784;SDS011;57944;48.722;9.316;2022-09-25T07:16:48;28.07;;;18.30;;
2784;SDS011;57944;48.722;9.316;2022-09-25T07:19:18;21.97;;;15.67;;
2784;SDS011;57944;48.722;9.316;2022-09-25T07:21:53;26.07;;;14.90;;
2784;SDS011;57944;48.722;9.316;2022-09-25T07:24:25;21.90;;;13.97;;
2784;SDS011;57944;48.722;9.316;2022-09-25T07:26:55;26.50;;;16.80;;
2784;SDS011;57944;48.722;9.316;2022-09-25T07:29:25;29.77;;;16.63;;
2784;SDS011;57944;48.722;9.316;2022-09-25T07:31:55;27.80;;;17.53;;
2784;SDS011;57944;48.722;9.316;2022-09-25T07:34:25;25.97;;;15.57;;
2784;SDS011;57944;48.722;9.316;2022-09-25T07:36:55;25.23;;;15.53;;
2784;SDS011;57944;48.722;9.316;2022-09-25T07:39:28;20.93;;;13.97;;
2784;SDS011;57944;48.722;9.316;2022-09-25T07:41:58;22.87;;;14.70;;
2784;SDS011;57944;48.722;9.316;2022-09-25T07:44:29;22.60;;;14.00;;
2784;SDS011;57944;48.722;9.316;2022-09-25T07:47:03;20.67;;;14.10;;
2784;SDS011;57944;48.722;9.316;2022-09-25T07:49:34;24.03;;;15.77;;
2784;SDS011;57944;48.722;9.316;2022-09-25T07:52:05;18.80;;;14.97;;
2784;SDS011;57944;48.722;9.316;2022-09-25T07:54:38;17.67;;;13.40;;
2784;SDS011;57944;48.722;9.316;2022-09-25T07:57:09;19.37;;;13.60;;
2784;SDS011;57944;48.722;9.316;2022-09-25T07:59:39;23.03;;;14.37;;
2784;SDS011;57944;48.722;9.316;2022-09-25T08:02:10;22.50;;;13.83;;
2784;SDS011;57944;48.722;9.316;2022-09-25T08:04:40;18.27;;;13.60;;
2784;SDS011;57944;48.722;9.316;2022-09-25T08:07:10;22.33;;;13.70;;
2784;SDS011;57944;48.722;9.316;2022-09-25T08:09:43;18.20;;;13.87;;
2784;SDS011;57944;48.722;9.316;2022-09-25T08:12:13;20.27;;;13.53;;
2784;SDS011;57944;48.722;9.316;2022-09-25T08:14:43;18.30;;;12.63;;
2784;SDS011;57944;48.722;9.316;2022-09-25T08:17:13;21.07;;;13.63;;
2784;SDS011;57944;48.722;9.316;2022-09-25T08:19:44;23.40;;;14.27;;
2784;SDS011;57944;48.722;9.316;2022-09-25T08:22:14;19.30;;;12.43;;
2784;SDS011;57944;48.722;9.316;2022-09-25T08:24:46;18.00;;;13.13;;
2784;SDS011;57944;48.722;9.316;2022-09-25T08:27:16;20.67;;;13.43;;
2784;SDS011;57944;48.722;9.316;2022-09-25T08:29:47;19.43;;;13.83;;
2784;SDS011;57944;48.722;9.316;2022-09-25T08:32:16;16.27;;;12.40;;
2784;SDS011;57944;48.722;9.316;2022-09-25T08:34:46;17.37;;;12.57;;
2784;SDS011;57944;48.722;9.316;2022-09-25T08:37:17;16.30;;;12.13;;
2784;SDS011;57944;48.722;9.316;2022-09-25T08:39:50;18.17;;;12.80;;
2784;SDS011;57944;48.722;9.316;2022-09-25T08:42:21;16.23;;;12.30;;
2784;SDS011;57944;48.722;9.316;2022-09-25T08:45:02;18.87;;;13.10;;
2784;SDS011;57944;48.722;9.316;2022-09-25T08:47:53;18.80;;;13.40;;
2784;SDS011;57944;48.722;9.316;2022-09-25T08:50:39;16.53;;;12.70;;
2784;SDS011;57944;48.722;9.316;2022-09-25T08:53:11;18.23;;;12.80;;
2784;SDS011;57944;48.722;9.316;2022-09-25T08:55:52;18.57;;;12.73;;
2784;SDS011;57944;48.722;9.316;2022-09-25T08:58:37;17.30;;;13.47;;
2784;SDS011;57944;48.722;9.316;2022-09-25T09:01:11;18.47;;;12.67;;
2784;SDS011;57944;48.722;9.316;2022-09-25T09:03:48;16.90;;;12.50;;
2784;SDS011;57944;48.722;9.316;2022-09-25T09:06:25;15.50;;;11.60;;
2784;SDS011;57944;48.722;9.316;2022-09-25T09:08:59;15.90;;;11.93;;
2784;SDS011;57944;48.722;9.316;2022-09-25T09:11:49;18.03;;;12.00;;
2784;SDS011;57944;48.722;9.316;2022-09-25T09:14:27;16.97;;;12.17;;
2784;SDS011;57944;48.722;9.316;2022-09-25T09:17:04;15.97;;;12.20;;
2784;SDS011;57944;48.722;9.316;2022-09-25T09:19:45;13.27;;;11.37;;
2784;SDS011;57944;48.722;9.316;2022-09-25T09:22:19;16.70;;;13.07;;
2784;SDS011;57944;48.722;9.316;2022-09-25T09:24:59;16.47;;;11.67;;
2784;SDS011;57944;48.722;9.316;2022-09-25T09:27:46;13.27;;;10.70;;
2784;SDS011;57944;48.722;9.316;2022-09-25T09:30:35;14.00;;;11.17;;
2784;SDS011;57944;48.722;9.316;2022-09-25T09:33:22;13.70;;;10.13;;
2784;SDS011;57944;48.722;9.316;2022-09-25T09:36:12;15.60;;;11.50;;
2784;SDS011;57944;48.722;9.316;2022-09-25T09:38:57;14.43;;;11.77;;
2784;SDS011;57944;48.722;9.316;2022-09-25T09:41:38;11.33;;;9.90;;
2784;SDS011;57944;48.722;9.316;2022-09-25T09:44:32;15.23;;;9.70;;
2784;SDS011;57944;48.722;9.316;2022-09-25T09:47:24;14.67;;;10.40;;
2784;SDS011;57944;48.722;9.316;2022-09-25T09:50:18;16.50;;;9.47;;
2784;SDS011;57944;48.722;9.316;2022-09-25T09:52:57;12.80;;;9.03;;
2784;SDS011;57944;48.722;9.316;2022-09-25T09:55:35;10.67;;;9.20;;
2784;SDS011;57944;48.722;9.316;2022-09-25T09:58:14;12.70;;;10.13;;
2784;SDS011;57944;48.722;9.316;2022-09-25T10:00:57;15.87;;;10.40;;
2784;SDS011;57944;48.722;9.316;2022-09-25T10:03:48;16.93;;;11.90;;
2784;SDS011;57944;48.722;9.316;2022-09-25T10:06:27;17.93;;;12.43;;
2784;SDS011;57944;48.722;9.316;2022-09-25T10:09:03;15.17;;;12.57;;
2784;SDS011;57944;48.722;9.316;2022-09-25T10:11:34;14.90;;;10.80;;
2784;SDS011;57944;48.722;9.316;2022-09-25T10:14:04;11.83;;;9.90;;
2784;SDS011;57944;48.722;9.316;2022-09-25T10:16:42;14.20;;;10.57;;
2784;SDS011;57944;48.722;9.316;2022-09-25T10:19:13;15.40;;;11.40;;
2784;SDS011;57944;48.722;9.316;2022-09-25T10:21:50;15.57;;;11.80;;
2784;SDS011;57944;48.722;9.316;2022-09-25T10:27:29;16.03;;;13.70;;
2784;SDS011;57944;48.722;9.316;2022-09-25T10:30:11;15.80;;;12.13;;
2784;SDS011;57944;48.722;9.316;2022-09-25T10:32:50;17.87;;;13.03;;
2784;SDS011;57944;48.722;9.316;2022-09-25T10:35:28;14.00;;;9.37;;
2784;SDS011;57944;48.722;9.316;2022-09-25T10:38:36;14.97;;;9.97;;
2784;SDS011;57944;48.722;9.316;2022-09-25T10:41:15;12.07;;;9.77;;
2784;SDS011;57944;48.722;9.316;2022-09-25T10:43:51;11.47;;;9.40;;
2784;SDS011;57944;48.722;9.316;2022-09-25T10:46:26;14.50;;;11.33;;
2784;SDS011;57944;48.722;9.316;2022-09-25T10:49:13;11.27;;;9.33;;
2784;SDS011;57944;48.722;9.316;2022-09-25T10:52:00;14.33;;;10.03;;
2784;SDS011;57944;48.722;9.316;2022-09-25T10:54:36;14.50;;;10.63;;
2784;SDS011;57944;48.722;9.316;2022-09-25T10:57:14;10.07;;;8.07;;
2784;SDS011;57944;48.722;9.316;2022-09-25T11:00:02;11.40;;;8.50;;
2784;SDS011;57944;48.722;9.316;2022-09-25T11:02:47;12.63;;;10.40;;
2784;SDS011;57944;48.722;9.316;2022-09-25T11:05:23;17.33;;;11.27;;
2784;SDS011;57944;48.722;9.316;2022-09-25T11:07:59;19.83;;;10.60;;
2784;SDS011;57944;48.722;9.316;2022-09-25T11:10:35;12.83;;;10.67;;
2784;SDS011;57944;48.722;9.316;2022-09-25T11:13:22;14.17;;;11.50;;
2784;SDS011;57944;48.722;9.316;2022-09-25T11:15:57;18.73;;;12.30;;
2784;SDS011;57944;48.722;9.316;2022-09-25T11:18:33;14.03;;;11.40;;
2784;SDS011;57944;48.722;9.316;2022-09-25T11:21:16;15.60;;;11.67;;
2784;SDS011;57944;48.722;9.316;2022-09-25T11:27:08;24.00;;;11.50;;
2784;SDS011;57944;48.722;9.316;2022-09-25T11:30:07;19.40;;;12.50;;
2784;SDS011;57944;48.722;9.316;2022-09-25T11:32:44;17.27;;;11.13;;
2784;SDS011;57944;48.722;9.316;2022-09-25T11:35:33;17.50;;;12.90;;
2784;SDS011;57944;48.722;9.316;2022-09-25T11:38:16;16.10;;;12.30;;
2784;SDS011;57944;48.722;9.316;2022-09-25T11:41:15;15.73;;;11.47;;
2784;SDS011;57944;48.722;9.316;2022-09-25T11:43:58;20.80;;;13.43;;
2784;SDS011;57944;48.722;9.316;2022-09-25T11:46:49;21.37;;;13.30;;
2784;SDS011;57944;48.722;9.316;2022-09-25T11:49:30;18.13;;;13.60;;
2784;SDS011;57944;48.722;9.316;2022-09-25T11:52:12;17.60;;;12.73;;
2784;SDS011;57944;48.722;9.316;2022-09-25T11:58:30;25.83;;;16.00;;
2784;SDS011;57944;48.722;9.316;2022-09-25T12:01:19;24.83;;;17.60;;
2784;SDS011;57944;48.722;9.316;2022-09-25T12:04:18;23.37;;;17.40;;
2784;SDS011;57944;48.722;9.316;2022-09-25T12:07:19;34.60;;;22.47;;
2784;SDS011;57944;48.722;9.316;2022-09-25T12:10:29;27.80;;;20.27;;
2784;SDS011;57944;48.722;9.316;2022-09-25T12:13:14;28.67;;;20.53;;
2784;SDS011;57944;48.722;9.316;2022-09-25T12:16:00;30.10;;;20.40;;
2784;SDS011;57944;48.722;9.316;2022-09-25T12:18:46;33.50;;;20.77;;
2784;SDS011;57944;48.722;9.316;2022-09-25T12:21:35;28.37;;;19.23;;
2784;SDS011;57944;48.722;9.316;2022-09-25T12:24:16;31.53;;;20.73;;
2784;SDS011;57944;48.722;9.316;2022-09-25T12:27:07;28.07;;;19.90;;
2784;SDS011;57944;48.722;9.316;2022-09-25T12:29:55;31.40;;;18.10;;
2784;SDS011;57944;48.722;9.316;2022-09-25T12:32:44;23.50;;;18.50;;
2784;SDS011;57944;48.722;9.316;2022-09-25T12:35:39;27.00;;;17.50;;
2784;SDS011;57944;48.722;9.316;2022-09-25T12:38:23;25.13;;;18.27;;
2784;SDS011;57944;48.722;9.316;2022-09-25T12:41:07;33.97;;;19.40;;
2784;SDS011;57944;48.722;9.316;2022-09-25T12:43:47;24.23;;;18.70;;
2784;SDS011;57944;48.722;9.316;2022-09-25T12:46:27;24.07;;;18.60;;
2784;SDS011;57944;48.722;9.316;2022-09-25T12:49:07;20.13;;;14.87;;
2784;SDS011;57944;48.722;9.316;2022-09-25T12:51:46;30.40;;;18.50;;
2784;SDS011;57944;48.722;9.316;2022-09-25T12:54:24;24.17;;;17.70;;
2784;SDS011;57944;48.722;9.316;2022-09-25T12:57:01;22.80;;;17.47;;
2784;SDS011;57944;48.722;9.316;2022-09-25T12:59:42;23.60;;;17.87;;
2784;SDS011;57944;48.722;9.316;2022-09-25T13:02:24;21.23;;;15.77;;
2784;SDS011;57944;48.722;9.316;2022-09-25T13:05:07;24.07;;;17.90;;
2784;SDS011;57944;48.722;9.316;2022-09-25T13:07:48;23.73;;;18.33;;
2784;SDS011;57944;48.722;9.316;2022-09-25T13:10:31;22.80;;;17.40;;
2784;SDS011;57944;48.722;9.316;2022-09-25T13:13:08;27.87;;;19.07;;
2784;SDS011;57944;48.722;9.316;2022-09-25T13:15:47;27.60;;;18.00;;
2784;SDS011;57944;48.722;9.316;2022-09-25T13:18:23;24.00;;;18.20;;
2784;SDS011;57944;48.722;9.316;2022-09-25T13:20:56;20.77;;;16.63;;
2784;SDS011;57944;48.722;9.316;2022-09-25T13:23:29;27.47;;;17.60;;
2784;SDS011;57944;48.722;9.316;2022-09-25T13:26:12;21.97;;;17.60;;
2784;SDS011;57944;48.722;9.316;2022-09-25T13:28:48;21.73;;;17.63;;
2784;SDS011;57944;48.722;9.316;2022-09-25T13:31:24;18.30;;;14.80;;
2784;SDS011;57944;48.722;9.316;2022-09-25T13:34:02;23.97;;;16.57;;
2784;SDS011;57944;48.722;9.316;2022-09-25T13:36:38;20.20;;;14.60;;
2784;SDS011;57944;48.722;9.316;2022-09-25T13:39:18;18.00;;;13.00;;
2784;SDS011;57944;48.722;9.316;2022-09-25T13:42:11;18.63;;;15.13;;
2784;SDS011;57944;48.722;9.316;2022-09-25T13:44:57;21.53;;;15.60;;
2784;SDS011;57944;48.722;9.316;2022-09-25T13:47:55;17.50;;;13.63;;
2784;SDS011;57944;48.722;9.316;2022-09-25T13:50:37;21.50;;;15.70;;
2784;SDS011;57944;48.722;9.316;2022-09-25T13:53:12;21.20;;;16.13;;
2784;SDS011;57944;48.722;9.316;2022-09-25T13:56:15;22.00;;;15.57;;
2784;SDS011;57944;48.722;9.316;2022-09-25T13:59:23;22.57;;;16.63;;
2784;SDS011;57944;48.722;9.316;2022-09-25T14:02:36;19.07;;;15.40;;
2784;SDS011;57944;48.722;9.316;2022-09-25T14:05:13;18.57;;;13.80;;
2784;SDS011;57944;48.722;9.316;2022-09-25T14:07:47;22.50;;;15.13;;
2784;SDS011;57944;48.722;9.316;2022-09-25T14:10:23;21.33;;;16.60;;
2784;SDS011;57944;48.722;9.316;2022-09-25T14:13:10;19.80;;;15.00;;
2784;SDS011;57944;48.722;9.316;2022-09-25T14:15:45;16.27;;;13.23;;
2784;SDS011;57944;48.722;9.316;2022-09-25T14:18:17;19.17;;;14.30;;
2784;SDS011;57944;48.722;9.316;2022-09-25T14:20:55;20.43;;;14.90;;
2784;SDS011;57944;48.722;9.316;2022-09-25T14:23:29;15.80;;;12.03;;
2784;SDS011;57944;48.722;9.316;2022-09-25T14:26:00;15.70;;;10.97;;
2784;SDS011;57944;48.722;9.316;2022-09-25T14:28:34;16.13;;;12.87;;
2784;SDS011;57944;48.722;9.316;2022-09-25T14:31:35;18.17;;;12.57;;
2784;SDS011;57944;48.722;9.316;2022-09-25T14:34:20;17.00;;;11.60;;
2784;SDS011;57944;48.722;9.316;2022-09-25T14:37:11;17.13;;;12.67;;
2784;SDS011;57944;48.722;9.316;2022-09-25T14:40:01;15.83;;;11.70;;
2784;SDS011;57944;48.722;9.316;2022-09-25T14:48:49;19.23;;;11.60;;
2784;SDS011;57944;48.722;9.316;2022-09-25T14:51:25;14.70;;;10.43;;
2784;SDS011;57944;48.722;9.316;2022-09-25T14:54:06;15.53;;;11.00;;
2784;SDS011;57944;48.722;9.316;2022-09-25T14:56:43;16.13;;;10.13;;
2784;SDS011;57944;48.722;9.316;2022-09-25T14:59:17;12.13;;;8.43;;
2784;SDS011;57944;48.722;9.316;2022-09-25T15:01:56;11.53;;;8.53;;
2784;SDS011;57944;48.722;9.316;2022-09-25T15:04:32;10.30;;;7.43;;
2784;SDS011;57944;48.722;9.316;2022-09-25T15:07:08;11.50;;;7.63;;
2784;SDS011;57944;48.722;9.316;2022-09-25T15:09:46;10.23;;;7.90;;
2784;SDS011;57944;48.722;9.316;2022-09-25T15:12:22;13.07;;;8.67;;
2784;SDS011;57944;48.722;9.316;2022-09-25T15:14:57;10.40;;;8.30;;
2784;SDS011;57944;48.722;9.316;2022-09-25T15:17:36;11.20;;;8.17;;
2784;SDS011;57944;48.722;9.316;2022-09-25T15:20:18;12.27;;;7.67;;
2784;SDS011;57944;48.722;9.316;2022-09-25T15:22:54;12.07;;;8.60;;
2784;SDS011;57944;48.722;9.316;2022-09-25T15:25:29;12.67;;;7.33;;
2784;SDS011;57944;48.722;9.316;2022-09-25T15:28:03;11.27;;;7.73;;
2784;SDS011;57944;48.722;9.316;2022-09-25T15:30:35;12.43;;;8.60;;
2784;SDS011;57944;48.722;9.316;2022-09-25T15:33:10;16.20;;;9.73;;
2784;SDS011;57944;48.722;9.316;2022-09-25T15:35:57;12.53;;;9.13;;
2784;SDS011;57944;48.722;9.316;2022-09-25T15:38:30;18.33;;;10.77;;
2784;SDS011;57944;48.722;9.316;2022-09-25T15:41:05;14.83;;;8.37;;
2784;SDS011;57944;48.722;9.316;2022-09-25T15:43:38;12.37;;;9.03;;
2784;SDS011;57944;48.722;9.316;2022-09-25T15:49:03;8.50;;;7.33;;
2784;SDS011;57944;48.722;9.316;2022-09-25T15:51:37;10.67;;;6.97;;